Ponchatoula, LA (70454)

6:44 PM CDT on July 23, 2016 (GMT -0500)
Wildoak Lane | | Change Station

Elev 52 ft 30.46 °N, 90.41 °W | Updated 10 minutes ago

Clear
Clear
86.0 °F
Feels Like 95 °F
N
1.7
Wind Variable Wind from SW

Today
High -- | Low -- °F
--% Chance of Precip.
Yesterday
High -- | Low -- °F
Precip. -- in
Pressure 29.93 in
Visibility 10.0 miles
Clouds Clear
Heat Index 95 °F
Dew Point 75 °F
Humidity 70%
Rainfall 0.00 in
Snow Depth Not available.
6:14 AM 8:01 PM
Waning Gibbous, 81% visible
METAR KHDC 232335Z AUTO 24003KT 10SM CLR 31/21 A2993 RMK AO2 LTG DSNT NE AND SE
Pressure 29.93 in
Visibility 10.0 miles
Clouds Clear
Heat Index 95 °F
Dew Point 75 °F
Humidity 70%
Rainfall 0.00 in
Snow Depth Not available.
6:14 AM 8:01 PM
Waning Gibbous, 81% visible
METAR KHDC 232335Z AUTO 24003KT 10SM CLR 31/21 A2993 RMK AO2 LTG DSNT NE AND SE

10-Day Weather Forecast

Almanac

Astronomy

Jul. 23, 2016 Rise Set
Actual Time
Civil Twilight
Nautical Twilight
Astronomical Twilight
Moon
Length of Visible Light
Length of Day
Tomorrow will be .
, % of the Moon is Illuminated

Today's Extremes

State Highs State Lows

Community

WunderPhotos

Upload Photos

1,926,975 photos uploaded!

WunderBlog® & News

Nearby

Air Quality

  Air Quality AQ Index Pollutant
Not available.

Snow Depth

Station Depth Elevation

Earthquake Activity

City Distance Mag. Time & Date
Minimum magnitude displayed is 2.5.

Coastal Water Temperatures

Place Temperature

Stations

Nearby Weather Stations

Station Location Temp. Windchill Dew Point Humidity Wind Precip. Elev Updated Type
                   

Watches & Warnings

There are currently no watches in effect.